Time;durP1;ratioP1;P1;durP2;ratioP2;P2;SDS_P1;SDS_P2;PMS_P1;PMS_P2;Temp;Humidity;BMP_temperature;BMP_pressure;BME280_temperature;BME280_humidity;BME280_pressure;Samples;Min_cycle;Max_cycle;Signal;HPM_P1;HPM_P2
2022/04/01 00:02:18;;;;;;;10.50;7.47;;;5.40;78.40;;;;;;4985727;28;20111;-75
2022/04/01 00:04:43;;;;;;;10.48;7.38;;;5.30;78.40;;;;;;5007332;28;20498;-75
2022/04/01 00:07:09;;;;;;;10.48;6.80;;;5.30;78.30;;;;;;5001683;28;20033;-75
2022/04/01 00:09:34;;;;;;;8.85;6.72;;;5.30;78.40;;;;;;4990977;28;20036;-76
2022/04/01 00:12:00;;;;;;;11.98;6.85;;;5.30;79.10;;;;;;5009685;28;20042;-76
2022/04/01 00:14:26;;;;;;;10.70;7.85;;;5.30;78.30;;;;;;4975064;28;20111;-76
2022/04/01 00:16:51;;;;;;;10.65;7.65;;;5.30;78.40;;;;;;4968874;28;20049;-75
2022/04/01 00:19:17;;;;;;;10.88;7.95;;;5.30;78.40;;;;;;4931640;28;20041;-74
2022/04/01 00:21:43;;;;;;;11.50;7.38;;;5.30;78.40;;;;;;4966012;28;20033;-75
2022/04/01 00:24:09;;;;;;;10.90;7.85;;;5.20;78.40;;;;;;4939134;28;20029;-75
2022/04/01 00:26:34;;;;;;;10.13;7.25;;;5.20;78.40;;;;;;4957485;28;20427;-76
2022/04/01 00:29:00;;;;;;;10.15;6.82;;;5.20;78.50;;;;;;4940688;28;20107;-75
2022/04/01 00:31:26;;;;;;;10.88;6.97;;;5.10;78.40;;;;;;4972077;28;20034;-74
2022/04/01 00:34:15;;;;;;;8.90;6.72;;;5.10;78.50;;;;;;4980925;28;20108;-75
2022/04/01 00:36:37;;;;;;;10.93;7.85;;;5.10;78.50;;;;;;4957757;28;20041;-75
2022/04/01 00:39:03;;;;;;;10.00;6.75;;;5.10;78.50;;;;;;4968983;28;20054;-76
2022/04/01 00:41:28;;;;;;;8.40;6.40;;;5.10;78.60;;;;;;4974630;28;20038;-75
2022/04/01 00:44:20;;;;;;;9.73;6.72;;;5.10;78.60;;;;;;4980211;28;20045;-75
2022/04/01 00:46:56;;;;;;;11.95;7.32;;;5.10;78.80;;;;;;5004284;28;20402;-75
2022/04/01 00:49:21;;;;;;;10.48;7.13;;;5.10;78.60;;;;;;4943009;28;20089;-75
2022/04/01 00:51:48;;;;;;;9.18;6.60;;;5.10;78.60;;;;;;4931963;28;20085;-75
2022/04/01 00:54:14;;;;;;;10.60;7.32;;;5.00;78.60;;;;;;4961838;28;20552;-74
2022/04/01 00:56:39;;;;;;;9.65;7.13;;;5.10;78.60;;;;;;4933606;28;20050;-75
2022/04/01 00:59:06;;;;;;;10.85;7.57;;;5.10;78.60;;;;;;4964130;28;20060;-75
2022/04/01 01:01:35;;;;;;;10.48;7.25;;;5.00;78.60;;;;;;4957046;28;20038;-75
2022/04/01 01:04:04;;;;;;;12.23;8.15;;;5.00;78.60;;;;;;4973629;28;20493;-75
2022/04/01 01:06:30;;;;;;;10.32;7.68;;;5.00;78.70;;;;;;4915565;28;20046;-75
2022/04/01 01:08:56;;;;;;;10.75;7.20;;;5.00;78.80;;;;;;4925857;28;20038;-74
2022/04/01 01:11:22;;;;;;;11.35;7.40;;;4.90;78.80;;;;;;4919036;28;20052;-74
2022/04/01 01:13:48;;;;;;;10.68;7.60;;;4.90;78.80;;;;;;4949102;28;20514;-74
2022/04/01 01:16:13;;;;;;;9.88;6.72;;;4.90;78.80;;;;;;4964114;28;20038;-75
2022/04/01 01:18:39;;;;;;;11.02;8.05;;;4.90;78.80;;;;;;4975917;28;20030;-76
2022/04/01 01:21:09;;;;;;;10.02;7.68;;;4.90;78.80;;;;;;4992225;28;20042;-75
2022/04/01 01:23:35;;;;;;;12.07;8.10;;;4.90;79.00;;;;;;4982301;28;20029;-74
2022/04/01 01:26:01;;;;;;;12.05;8.48;;;4.90;79.00;;;;;;4967383;28;20497;-75
2022/04/01 01:28:27;;;;;;;11.07;8.10;;;4.90;79.00;;;;;;4972649;28;20044;-75
2022/04/01 01:30:54;;;;;;;10.93;7.93;;;4.90;79.00;;;;;;4993003;28;20030;-75
2022/04/01 01:33:20;;;;;;;11.95;8.43;;;4.90;79.10;;;;;;4973387;28;20053;-75
2022/04/01 01:35:46;;;;;;;10.65;7.55;;;4.90;79.20;;;;;;4959511;28;20527;-75
2022/04/01 01:38:11;;;;;;;9.80;7.18;;;4.90;79.90;;;;;;4953412;28;20510;-75
2022/04/01 01:40:37;;;;;;;13.05;8.65;;;4.90;79.20;;;;;;5019263;28;20045;-74
2022/04/01 01:43:03;;;;;;;11.90;7.55;;;4.90;80.00;;;;;;4980389;28;20038;-76
2022/04/01 01:45:29;;;;;;;13.20;7.22;;;4.90;79.20;;;;;;4976723;28;20075;-76
2022/04/01 01:47:55;;;;;;;9.27;7.03;;;4.90;79.20;;;;;;4963581;28;20042;-75
2022/04/01 01:55:49;;;;;;;10.27;7.40;;;4.90;79.20;;;;;;4976237;28;20140;-74
2022/04/01 01:58:15;;;;;;;10.85;7.18;;;4.90;79.20;;;;;;5006415;28;20065;-75
2022/04/01 02:00:41;;;;;;;11.52;7.75;;;4.90;79.20;;;;;;4958239;28;20101;-76
2022/04/01 02:03:06;;;;;;;11.00;7.05;;;4.90;79.30;;;;;;5004719;28;20033;-74
2022/04/01 02:05:34;;;;;;;10.18;6.78;;;4.90;79.20;;;;;;4972385;28;20580;-77
2022/04/01 02:08:00;;;;;;;10.05;7.07;;;4.90;79.30;;;;;;4960521;28;20034;-74
2022/04/01 02:10:26;;;;;;;10.75;7.53;;;4.80;79.20;;;;;;4938218;28;20038;-74
2022/04/01 02:12:52;;;;;;;10.15;7.68;;;4.80;79.20;;;;;;4942189;28;20029;-75
2022/04/01 02:15:17;;;;;;;10.52;7.72;;;4.90;79.30;;;;;;4956708;28;20053;-74
2022/04/01 02:17:43;;;;;;;9.25;7.18;;;4.80;79.40;;;;;;4987085;28;20045;-75
2022/04/01 02:20:09;;;;;;;10.23;7.07;;;4.90;79.40;;;;;;4966259;28;20029;-75
2022/04/01 02:22:38;;;;;;;9.18;6.63;;;4.80;79.40;;;;;;4989409;28;20056;-75
2022/04/01 02:25:07;;;;;;;9.45;6.57;;;4.80;79.40;;;;;;4983269;28;20034;-75
2022/04/01 02:27:33;;;;;;;9.88;7.00;;;4.80;79.40;;;;;;4953547;28;20037;-76
2022/04/01 02:29:58;;;;;;;8.10;6.55;;;4.80;79.40;;;;;;4982326;28;20145;-75
2022/04/01 02:32:25;;;;;;;8.50;6.65;;;4.80;79.40;;;;;;4952091;28;20030;-75
2022/04/01 02:34:50;;;;;;;9.30;6.78;;;4.90;79.40;;;;;;4994931;28;20040;-75
2022/04/01 02:37:19;;;;;;;8.98;6.50;;;4.90;79.50;;;;;;4970561;28;20089;-75
2022/04/01 02:39:44;;;;;;;9.90;6.93;;;4.90;79.40;;;;;;4944567;28;20025;-74
2022/04/01 02:42:10;;;;;;;10.15;7.35;;;4.90;79.30;;;;;;4981572;28;20046;-74
2022/04/01 02:44:35;;;;;;;8.98;6.72;;;4.90;79.40;;;;;;4921147;28;20039;-75
2022/04/01 02:47:01;;;;;;;9.00;6.63;;;4.80;79.40;;;;;;4980042;28;20030;-74
2022/04/01 02:49:26;;;;;;;9.13;7.28;;;4.80;79.40;;;;;;4950434;28;20037;-75
2022/04/01 02:51:53;;;;;;;8.98;6.45;;;4.80;80.20;;;;;;4963871;28;20050;-76
2022/04/01 02:54:20;;;;;;;10.82;7.53;;;4.80;79.40;;;;;;4989444;28;20038;-74
2022/04/01 02:56:46;;;;;;;10.23;7.68;;;4.80;79.40;;;;;;5003756;28;20525;-74
2022/04/01 02:59:11;;;;;;;9.20;6.47;;;4.80;79.50;;;;;;4933422;28;20054;-75
2022/04/01 03:01:38;;;;;;;10.55;8.02;;;4.80;79.50;;;;;;4997896;28;20078;-74
2022/04/01 03:04:10;;;;;;;11.80;7.93;;;4.80;79.50;;;;;;4950730;28;20027;-74
2022/04/01 03:06:39;;;;;;;10.30;7.68;;;4.80;79.60;;;;;;4961365;28;20090;-74
2022/04/01 03:09:06;;;;;;;10.80;9.00;;;4.80;79.50;;;;;;4951468;28;20030;-74
2022/04/01 03:11:31;;;;;;;13.82;9.63;;;4.80;80.30;;;;;;4977391;28;20094;-76
2022/04/01 03:13:57;;;;;;;13.77;9.45;;;4.80;79.60;;;;;;4961531;28;20065;-74
2022/04/01 03:16:23;;;;;;;12.32;9.45;;;4.80;79.60;;;;;;4957410;28;20418;-74
2022/04/01 03:18:48;;;;;;;11.00;8.00;;;4.80;79.60;;;;;;5007834;28;20033;-75
2022/04/01 03:21:14;;;;;;;8.35;7.00;;;4.80;79.60;;;;;;4953130;28;20041;-73
2022/04/01 03:23:41;;;;;;;10.40;7.55;;;4.70;79.60;;;;;;4963634;28;20497;-74
2022/04/01 03:26:07;;;;;;;11.32;7.60;;;4.70;79.60;;;;;;4939449;28;20068;-75
2022/04/01 03:28:33;;;;;;;10.38;7.43;;;4.70;79.60;;;;;;4989174;28;20859;-75
2022/04/01 03:31:00;;;;;;;10.50;7.38;;;4.70;79.60;;;;;;4983472;28;20069;-75
2022/04/01 03:33:25;;;;;;;92.50;29.45;;;4.70;79.50;;;;;;4982171;28;20034;-74
2022/04/01 03:35:51;;;;;;;74.97;24.77;;;4.70;79.60;;;;;;4978571;28;20117;-75
2022/04/01 03:38:16;;;;;;;69.72;23.85;;;4.70;79.60;;;;;;5006030;28;20049;-75
2022/04/01 03:40:42;;;;;;;115.65;39.97;;;4.70;79.60;;;;;;4976402;28;20041;-74
2022/04/01 03:43:07;;;;;;;25.80;13.43;;;4.70;79.70;;;;;;5006301;28;20038;-75
2022/04/01 03:45:35;;;;;;;29.45;13.77;;;4.70;79.70;;;;;;4940940;28;20037;-76
2022/04/01 03:48:05;;;;;;;20.17;12.05;;;4.70;79.70;;;;;;4986579;28;20034;-75
2022/04/01 03:50:33;;;;;;;12.32;8.32;;;4.60;79.60;;;;;;4980994;28;20377;-74
2022/04/01 03:53:01;;;;;;;14.55;8.60;;;4.60;79.60;;;;;;4986528;28;20050;-76
2022/04/01 03:55:28;;;;;;;11.93;7.25;;;4.60;79.70;;;;;;4988083;28;20046;-75
2022/04/01 03:57:54;;;;;;;10.68;6.90;;;4.60;79.70;;;;;;4995633;28;20068;-76
2022/04/01 04:00:19;;;;;;;9.02;6.82;;;4.60;79.70;;;;;;4991997;28;20087;-76
2022/04/01 04:02:46;;;;;;;10.80;7.40;;;4.60;79.70;;;;;;4976626;28;20054;-75
2022/04/01 04:05:13;;;;;;;11.10;7.38;;;4.60;79.80;;;;;;4994994;28;20025;-75
2022/04/01 04:07:40;;;;;;;8.93;6.57;;;4.60;79.70;;;;;;4997966;28;20038;-75
2022/04/01 04:10:07;;;;;;;9.10;6.88;;;4.50;79.80;;;;;;4995984;28;20054;-74
2022/04/01 04:12:33;;;;;;;8.70;6.07;;;4.50;79.80;;;;;;4977772;28;20049;-75
2022/04/01 04:14:59;;;;;;;8.63;6.70;;;4.50;79.80;;;;;;4957851;28;20046;-74
2022/04/01 04:17:36;;;;;;;10.15;7.22;;;4.50;79.90;;;;;;4952644;28;20035;-74
2022/04/01 04:20:15;;;;;;;8.85;6.88;;;4.50;80.00;;;;;;4975063;28;20045;-75
2022/04/01 04:22:49;;;;;;;10.75;6.90;;;4.50;80.00;;;;;;4959308;28;20102;-74
2022/04/01 04:25:15;;;;;;;8.27;6.32;;;4.50;80.00;;;;;;4964165;28;20681;-76
2022/04/01 04:27:44;;;;;;;9.38;7.30;;;4.50;79.90;;;;;;4942014;28;20289;-74
2022/04/01 04:30:10;;;;;;;8.82;7.15;;;4.50;79.90;;;;;;4985443;28;20034;-74
2022/04/01 04:32:39;;;;;;;9.82;6.82;;;4.50;79.90;;;;;;4979582;28;20877;-74
2022/04/01 04:35:09;;;;;;;9.77;7.15;;;4.50;80.00;;;;;;4974482;28;20052;-73
2022/04/01 04:37:35;;;;;;;8.70;6.45;;;4.40;80.00;;;;;;5001958;28;20060;-75
2022/04/01 04:40:02;;;;;;;9.60;7.10;;;4.50;80.00;;;;;;4964676;28;20050;-75
2022/04/01 04:42:28;;;;;;;7.90;6.30;;;4.50;80.00;;;;;;4968246;28;20041;-75
2022/04/01 04:44:54;;;;;;;9.02;6.93;;;4.40;80.00;;;;;;4970746;28;20034;-75
2022/04/01 04:47:28;;;;;;;9.30;6.18;;;4.40;79.90;;;;;;4949563;28;20036;-74
2022/04/01 04:49:56;;;;;;;8.98;6.57;;;4.40;80.00;;;;;;4949985;28;20063;-75
2022/04/01 04:52:22;;;;;;;18.10;14.60;;;4.30;79.90;;;;;;4988339;28;20046;-75
2022/04/01 04:54:47;;;;;;;12.10;10.63;;;4.30;79.90;;;;;;4981592;28;20057;-75
2022/04/01 04:57:15;;;;;;;14.75;10.13;;;4.30;80.00;;;;;;4959447;28;20046;-74
2022/04/01 04:59:42;;;;;;;31.10;13.88;;;4.30;80.00;;;;;;4975401;28;20052;-75
2022/04/01 05:02:10;;;;;;;44.60;18.60;;;4.20;80.00;;;;;;4952226;28;20049;-75
2022/04/01 05:05:04;;;;;;;54.88;30.77;;;4.30;80.10;;;;;;4947297;28;20470;-75
2022/04/01 05:07:53;;;;;;;31.83;18.35;;;4.20;80.20;;;;;;4994574;28;20061;-75
2022/04/01 05:10:25;;;;;;;17.25;11.80;;;4.20;80.20;;;;;;4985258;28;20058;-77
2022/04/01 05:13:19;;;;;;;25.98;14.35;;;4.20;80.10;;;;;;4967630;28;20046;-75
2022/04/01 05:15:45;;;;;;;38.25;16.98;;;4.20;80.30;;;;;;4989638;28;20089;-75
2022/04/01 05:18:29;;;;;;;68.43;27.63;;;4.20;80.10;;;;;;4973423;28;20046;-75
2022/04/01 05:20:55;;;;;;;32.42;16.73;;;4.10;80.10;;;;;;4960085;28;20034;-75
2022/04/01 05:23:36;;;;;;;27.48;14.55;;;4.10;80.10;;;;;;4988966;28;20069;-74
2022/04/01 05:26:12;;;;;;;14.25;9.38;;;4.10;80.30;;;;;;4958707;28;20720;-74
2022/04/01 05:28:45;;;;;;;11.95;9.27;;;4.10;80.30;;;;;;4989508;28;20057;-75
2022/04/01 05:31:37;;;;;;;14.02;11.73;;;4.00;80.30;;;;;;4968695;28;20044;-75
2022/04/01 05:34:18;;;;;;;;;;;4.00;80.50;;;;;;4982123;28;20147;-75
2022/04/01 05:36:43;;;;;;;11.02;7.90;;;4.00;80.20;;;;;;4966538;28;19921;-74
2022/04/01 05:39:09;;;;;;;9.75;8.73;;;4.00;80.00;;;;;;4928417;28;20058;-75
2022/04/01 05:41:35;;;;;;;10.57;8.38;;;4.00;80.20;;;;;;4973573;28;20041;-75
2022/04/01 05:44:00;;;;;;;13.40;9.10;;;3.90;80.20;;;;;;4979458;28;20030;-76
2022/04/01 05:46:26;;;;;;;21.20;15.45;;;3.90;80.30;;;;;;4940446;28;20034;-76
2022/04/01 05:48:54;;;;;;;13.30;10.32;;;3.90;80.40;;;;;;4980635;28;20131;-76
2022/04/01 05:51:20;;;;;;;16.27;10.02;;;3.90;80.50;;;;;;4962877;28;20257;-75
2022/04/01 05:53:47;;;;;;;118.72;50.45;;;3.90;80.50;;;;;;4992807;28;20064;-75
2022/04/01 05:56:12;;;;;;;40.50;20.65;;;3.90;80.50;;;;;;4948933;28;20038;-75
2022/04/01 05:58:39;;;;;;;22.42;13.50;;;3.80;80.50;;;;;;4963880;28;20052;-75
2022/04/01 06:01:19;;;;;;;19.40;11.82;;;3.80;80.50;;;;;;5004181;28;20049;-75
2022/04/01 06:04:11;;;;;;;18.43;11.63;;;3.80;80.70;;;;;;4925036;28;20199;-76
2022/04/01 06:06:40;;;;;;;11.70;7.15;;;3.80;80.90;;;;;;4992247;28;20034;-77
2022/04/01 06:09:34;;;;;;;10.90;7.70;;;3.80;80.60;;;;;;4956313;28;20220;-76
2022/04/01 06:12:21;;;;;;;9.18;6.93;;;3.70;80.80;;;;;;4957230;28;20526;-76
2022/04/01 06:15:04;;;;;;;9.23;7.03;;;3.70;80.80;;;;;;4994618;28;20042;-76
2022/04/01 06:17:36;;;;;;;8.45;6.72;;;3.70;80.80;;;;;;5024946;28;20049;-76
2022/04/01 06:20:03;;;;;;;10.95;7.53;;;3.70;80.80;;;;;;4993215;28;20037;-76
2022/04/01 06:22:30;;;;;;;9.15;6.97;;;3.70;80.80;;;;;;4996107;28;20037;-76
2022/04/01 06:25:05;;;;;;;9.15;6.75;;;3.70;80.80;;;;;;4973914;28;20280;-77
2022/04/01 06:27:47;;;;;;;7.85;6.10;;;3.70;80.90;;;;;;5002116;28;20038;-75
2022/04/01 06:30:17;;;;;;;8.43;6.20;;;3.70;81.00;;;;;;5011385;28;20046;-75
2022/04/01 06:32:46;;;;;;;9.07;6.65;;;3.70;80.90;;;;;;4996347;28;20037;-75
2022/04/01 06:35:17;;;;;;;8.30;6.40;;;3.70;80.90;;;;;;5034698;28;20034;-76
2022/04/01 06:37:48;;;;;;;;;;;3.70;80.90;;;;;;4984171;28;20052;-75
2022/04/01 06:40:14;;;;;;;8.60;6.50;;;3.70;80.80;;;;;;5034604;28;19956;-75
2022/04/01 06:42:40;;;;;;;8.68;7.13;;;3.70;80.60;;;;;;5027137;28;20096;-76
2022/04/01 06:45:08;;;;;;;8.65;6.55;;;3.70;80.80;;;;;;5011813;28;20044;-75
2022/04/01 06:47:34;;;;;;;10.80;7.20;;;3.70;80.80;;;;;;4984861;28;20063;-76
2022/04/01 06:50:00;;;;;;;8.82;6.65;;;3.70;80.90;;;;;;4987591;28;20033;-77
2022/04/01 06:52:26;;;;;;;8.55;6.90;;;3.70;80.90;;;;;;5004286;28;20029;-76
2022/04/01 06:54:53;;;;;;;9.35;6.97;;;3.70;80.90;;;;;;4941079;28;20033;-76
2022/04/01 06:57:19;;;;;;;9.10;6.60;;;3.60;80.90;;;;;;4982610;28;20060;-75
2022/04/01 06:59:44;;;;;;;8.15;6.00;;;3.60;80.90;;;;;;4995364;28;20562;-75
2022/04/01 07:02:10;;;;;;;10.43;6.85;;;3.70;81.00;;;;;;4985957;28;20125;-75
2022/04/01 07:04:35;;;;;;;8.68;6.45;;;3.60;80.90;;;;;;4979249;28;20053;-76
2022/04/01 07:07:01;;;;;;;20.23;10.75;;;3.60;80.90;;;;;;4999041;28;20029;-76
2022/04/01 07:09:26;;;;;;;14.95;9.35;;;3.60;80.90;;;;;;4994967;28;20564;-75
2022/04/01 07:11:53;;;;;;;19.77;10.32;;;3.60;81.00;;;;;;4999313;28;20040;-76
2022/04/01 07:14:19;;;;;;;14.80;9.23;;;3.60;81.00;;;;;;5008554;28;20048;-75
2022/04/01 07:16:44;;;;;;;16.75;9.85;;;3.60;81.00;;;;;;4990289;28;20043;-75
2022/04/01 07:19:11;;;;;;;13.00;8.57;;;3.60;81.00;;;;;;5018663;28;20030;-76
2022/04/01 07:21:36;;;;;;;14.88;8.93;;;3.60;81.10;;;;;;5008028;28;20037;-76
2022/04/01 07:24:02;;;;;;;23.67;13.15;;;3.60;81.10;;;;;;5000914;28;20037;-76
2022/04/01 07:26:28;;;;;;;23.95;13.43;;;3.60;81.20;;;;;;5013088;28;20034;-76
2022/04/01 07:28:54;;;;;;;27.65;14.75;;;3.60;81.20;;;;;;5000176;28;20244;-76
2022/04/01 07:34:05;;;;;;;12.18;8.57;;;3.60;81.20;;;;;;5017129;28;20072;-75
2022/04/01 07:36:30;;;;;;;9.40;6.50;;;3.60;81.20;;;;;;4996254;28;20093;-75
2022/04/01 07:38:56;;;;;;;8.52;6.57;;;3.60;81.20;;;;;;5016388;28;20113;-76
2022/04/01 07:41:21;;;;;;;10.13;7.65;;;3.50;81.20;;;;;;5012670;28;20141;-76
2022/04/01 07:43:47;;;;;;;17.30;10.65;;;3.50;81.20;;;;;;5001170;28;20429;-77
2022/04/01 07:46:12;;;;;;;14.82;9.38;;;3.50;81.30;;;;;;5015682;28;20065;-75
2022/04/01 07:48:38;;;;;;;18.38;11.15;;;3.50;81.40;;;;;;4989133;28;20067;-76
2022/04/01 07:51:03;;;;;;;18.10;10.55;;;3.50;81.40;;;;;;4988011;28;20120;-76
2022/04/01 07:53:29;;;;;;;18.90;10.73;;;3.50;81.40;;;;;;5015158;28;20496;-75
2022/04/01 07:55:54;;;;;;;19.10;10.18;;;3.50;81.50;;;;;;4984399;28;20033;-75
2022/04/01 07:58:21;;;;;;;11.88;8.50;;;3.50;81.50;;;;;;5016143;28;20127;-76
2022/04/01 08:00:46;;;;;;;13.10;8.93;;;3.50;81.50;;;;;;4999672;28;20037;-76
2022/04/01 08:03:12;;;;;;;12.43;8.40;;;3.50;81.50;;;;;;5022944;28;20044;-76
2022/04/01 08:05:37;;;;;;;11.70;8.02;;;3.40;81.40;;;;;;5000021;28;20097;-77
2022/04/01 08:08:03;;;;;;;14.45;8.55;;;3.40;81.40;;;;;;4985142;28;20140;-76
2022/04/01 08:10:29;;;;;;;11.80;8.48;;;3.40;81.40;;;;;;4990878;28;20030;-75
2022/04/01 08:12:55;;;;;;;13.57;9.02;;;3.40;81.40;;;;;;5035689;28;20048;-76
2022/04/01 08:15:20;;;;;;;27.23;15.18;;;3.30;81.50;;;;;;4991921;28;20132;-75
2022/04/01 08:17:46;;;;;;;23.92;13.82;;;3.40;81.60;;;;;;5019553;28;20391;-75
2022/04/01 08:20:12;;;;;;;19.23;10.80;;;3.30;81.60;;;;;;5008711;28;20105;-76
2022/04/01 08:22:39;;;;;;;16.88;10.07;;;3.30;81.60;;;;;;5015912;28;20781;-75
2022/04/01 08:25:05;;;;;;;18.23;11.18;;;3.30;81.70;;;;;;4992577;28;20127;-76
2022/04/01 08:27:30;;;;;;;17.90;11.52;;;3.30;81.70;;;;;;5002828;28;20041;-76
2022/04/01 08:29:59;;;;;;;16.55;10.73;;;3.20;81.70;;;;;;4999743;28;20049;-75
2022/04/01 08:32:25;;;;;;;16.15;11.20;;;3.20;81.80;;;;;;5032714;28;20053;-76
2022/04/01 08:34:51;;;;;;;16.42;11.38;;;3.20;81.70;;;;;;5009062;28;20037;-75
2022/04/01 08:37:17;;;;;;;18.52;12.38;;;3.20;81.80;;;;;;5007837;28;20063;-75
2022/04/01 08:39:43;;;;;;;67.45;37.65;;;3.20;81.90;;;;;;5020830;28;20049;-75
2022/04/01 08:42:09;;;;;;;259.45;198.00;;;3.20;81.90;;;;;;5007988;28;20041;-75
2022/04/01 08:44:40;;;;;;;45.58;36.70;;;3.10;82.00;;;;;;4975866;28;20071;-75
2022/04/01 08:47:09;;;;;;;25.75;19.92;;;3.10;82.10;;;;;;5021020;28;20041;-76
2022/04/01 08:49:35;;;;;;;33.80;25.88;;;3.10;82.20;;;;;;5007948;28;20037;-75
2022/04/01 08:52:01;;;;;;;58.33;50.22;;;3.10;82.40;;;;;;5000938;28;20040;-75
2022/04/01 08:54:27;;;;;;;36.03;26.75;;;3.00;82.50;;;;;;5008490;28;20087;-75
2022/04/01 08:56:52;;;;;;;25.67;16.08;;;3.00;82.60;;;;;;5022917;28;20046;-77
2022/04/01 08:59:18;;;;;;;26.52;15.10;;;3.00;82.60;;;;;;4998527;28;20064;-76
2022/04/01 09:01:44;;;;;;;31.60;16.60;;;3.00;82.70;;;;;;5008315;28;20030;-76
2022/04/01 09:04:21;;;;;;;23.63;16.75;;;3.00;82.70;;;;;;5007075;28;20038;-75
2022/04/01 09:06:47;;;;;;;36.03;18.65;;;3.00;82.90;;;;;;5003544;28;20041;-76
2022/04/01 09:09:26;;;;;;;21.15;13.35;;;3.00;82.80;;;;;;5012033;28;20037;-75
2022/04/01 09:12:06;;;;;;;21.13;13.40;;;3.00;82.90;;;;;;4973402;28;20783;-76
2022/04/01 09:14:32;;;;;;;37.25;18.15;;;3.00;82.90;;;;;;5003386;28;20041;-76
2022/04/01 09:16:58;;;;;;;19.63;13.15;;;3.00;82.70;;;;;;5005571;28;20124;-75
2022/04/01 09:19:33;;;;;;;17.88;12.75;;;2.90;82.70;;;;;;5036058;28;20260;-75
2022/04/01 09:22:21;;;;;;;22.27;13.57;;;2.90;83.00;;;;;;4971843;28;20038;-76
2022/04/01 09:25:02;;;;;;;50.78;24.52;;;2.90;83.00;;;;;;4938391;28;20126;-76
2022/04/01 09:27:54;;;;;;;24.73;15.10;;;2.90;83.10;;;;;;4995769;28;21570;-76
2022/04/01 09:30:24;;;;;;;23.38;14.38;;;2.90;83.20;;;;;;5007850;28;20081;-75
2022/04/01 09:32:52;;;;;;;51.83;24.92;;;2.90;83.10;;;;;;5004941;28;20033;-76
2022/04/01 09:35:19;;;;;;;19.65;13.55;;;2.90;83.00;;;;;;5042272;28;20418;-76
2022/04/01 09:37:48;;;;;;;32.47;16.95;;;2.90;83.00;;;;;;5003541;28;20141;-76
2022/04/01 09:40:17;;;;;;;57.95;27.90;;;2.90;83.20;;;;;;5011138;28;20050;-75
2022/04/01 09:42:50;;;;;;;25.02;15.35;;;2.90;83.20;;;;;;4991421;28;20041;-76
2022/04/01 09:45:21;;;;;;;101.88;40.22;;;2.90;83.30;;;;;;5016891;28;20041;-76
2022/04/01 09:48:03;;;;;;;58.10;29.08;;;2.90;83.30;;;;;;4970111;28;20092;-75
2022/04/01 09:50:33;;;;;;;22.90;14.52;;;2.90;83.40;;;;;;5012114;28;20042;-75
2022/04/01 09:53:09;;;;;;;24.70;14.02;;;2.90;83.30;;;;;;5011609;28;20048;-75
2022/04/01 09:55:39;;;;;;;57.65;29.98;;;2.80;83.50;;;;;;4976250;28;20033;-76
2022/04/01 09:58:05;;;;;;;23.83;15.18;;;2.80;83.50;;;;;;4992722;28;20037;-76
2022/04/01 10:00:31;;;;;;;26.92;12.88;;;2.80;83.60;;;;;;4979458;28;20143;-76
2022/04/01 10:02:58;;;;;;;21.00;12.65;;;2.80;84.30;;;;;;5010339;28;20474;-75
2022/04/01 10:05:25;;;;;;;20.90;11.93;;;2.80;83.60;;;;;;4988801;28;20058;-76
2022/04/01 10:07:52;;;;;;;18.30;11.70;;;2.70;83.60;;;;;;4987283;28;20116;-77
2022/04/01 10:10:18;;;;;;;25.30;15.40;;;2.70;83.60;;;;;;5025042;28;20037;-76
2022/04/01 10:12:45;;;;;;;28.33;16.13;;;2.70;83.60;;;;;;4952629;28;20052;-78
2022/04/01 10:15:10;;;;;;;31.55;18.73;;;2.70;83.70;;;;;;4983262;28;20045;-76
2022/04/01 10:17:37;;;;;;;18.73;11.65;;;2.70;83.70;;;;;;4973878;28;20047;-76
2022/04/01 10:20:02;;;;;;;13.52;10.02;;;2.70;83.80;;;;;;4981218;28;20036;-76
2022/04/01 10:22:28;;;;;;;15.45;11.13;;;2.70;83.70;;;;;;4982006;28;20072;-76
2022/04/01 10:25:16;;;;;;;17.17;11.75;;;2.70;83.80;;;;;;4962474;28;20037;-76
2022/04/01 10:27:44;;;;;;;23.15;14.38;;;2.70;84.10;;;;;;4984314;28;20044;-76
2022/04/01 10:30:13;;;;;;;31.85;25.50;;;2.70;83.90;;;;;;4982376;28;20485;-75
2022/04/01 10:32:41;;;;;;;20.42;13.50;;;2.70;84.80;;;;;;4942940;28;20084;-76
2022/04/01 10:35:08;;;;;;;18.75;12.50;;;2.70;83.90;;;;;;4970648;28;20061;-77
2022/04/01 10:37:34;;;;;;;14.40;9.93;;;2.70;84.00;;;;;;4947197;28;20049;-76
2022/04/01 10:40:16;;;;;;;16.67;10.77;;;2.60;84.00;;;;;;4949323;28;20041;-78
2022/04/01 10:42:42;;;;;;;17.08;10.82;;;2.60;84.00;;;;;;4988506;28;20033;-78
2022/04/01 10:45:24;;;;;;;16.55;10.23;;;2.70;84.10;;;;;;4976057;28;20046;-77
2022/04/01 10:51:37;;;;;;;14.85;10.23;;;2.60;84.10;;;;;;4988015;28;20044;-77
2022/04/01 10:54:28;;;;;;;16.27;10.57;;;2.60;84.40;;;;;;4976248;28;20040;-78
2022/04/01 10:56:54;;;;;;;;;;;2.60;84.30;;;;;;5006409;28;20058;-78
2022/04/01 10:59:24;;;;;;;14.50;9.85;;;2.60;84.00;;;;;;5009497;28;19912;-77
2022/04/01 11:01:52;;;;;;;15.60;10.85;;;2.60;83.80;;;;;;4992738;28;20067;-78
2022/04/01 11:04:17;;;;;;;17.48;10.38;;;2.60;83.90;;;;;;5034059;28;20029;-78
2022/04/01 11:07:11;;;;;;;16.70;10.85;;;2.70;84.00;;;;;;5024503;28;20040;-77
2022/04/01 11:09:46;;;;;;;14.73;9.52;;;2.70;84.20;;;;;;5016363;28;20072;-76
2022/04/01 11:12:23;;;;;;;15.07;9.05;;;2.70;84.10;;;;;;5000288;28;20120;-78
2022/04/01 11:14:58;;;;;;;14.57;9.63;;;2.70;84.00;;;;;;5029334;28;20045;-76
2022/04/01 11:17:28;;;;;;;14.48;10.07;;;2.70;84.10;;;;;;4960691;28;20096;-76
2022/04/01 11:20:14;;;;;;;13.95;8.35;;;2.70;84.80;;;;;;4964628;28;20544;-76
2022/04/01 11:22:53;;;;;;;17.30;10.85;;;2.70;84.30;;;;;;4946142;28;20124;-76
2022/04/01 11:25:22;;;;;;;13.65;8.98;;;2.70;84.10;;;;;;4969319;28;20044;-77
2022/04/01 11:27:56;;;;;;;13.63;8.73;;;2.70;84.10;;;;;;4988286;28;20125;-76
2022/04/01 11:30:24;;;;;;;12.82;9.23;;;2.70;84.20;;;;;;4958280;28;20674;-77
2022/04/01 11:32:57;;;;;;;13.20;9.25;;;2.80;84.10;;;;;;4977495;28;20060;-76
2022/04/01 11:35:27;;;;;;;12.13;8.77;;;2.70;84.10;;;;;;4974803;28;20038;-76
2022/04/01 11:37:52;;;;;;;13.95;9.80;;;2.80;84.20;;;;;;4953394;28;20045;-76
2022/04/01 11:40:25;;;;;;;15.05;10.63;;;2.80;84.20;;;;;;4956636;28;20045;-76
2022/04/01 11:42:51;;;;;;;12.80;8.85;;;2.80;84.20;;;;;;4971434;28;20058;-76
2022/04/01 11:45:17;;;;;;;15.45;9.50;;;2.80;84.10;;;;;;4973056;28;20128;-76
2022/04/01 11:47:42;;;;;;;15.38;9.80;;;2.80;84.20;;;;;;4940899;28;20129;-76
2022/04/01 11:50:12;;;;;;;10.95;7.82;;;2.80;84.00;;;;;;4968872;28;20042;-77
2022/04/01 11:52:41;;;;;;;9.98;7.95;;;2.80;84.00;;;;;;4940917;28;20046;-76
2022/04/01 11:55:26;;;;;;;11.50;8.48;;;2.80;84.90;;;;;;4951980;28;20030;-76
2022/04/01 11:57:53;;;;;;;15.05;9.13;;;2.80;84.30;;;;;;4965216;28;20066;-75
2022/04/01 12:00:21;;;;;;;12.85;8.20;;;2.80;84.10;;;;;;4987098;28;20029;-76
2022/04/01 12:02:48;;;;;;;13.45;9.10;;;2.80;84.20;;;;;;4967927;28;20365;-75
2022/04/01 12:05:14;;;;;;;18.05;9.45;;;2.80;84.10;;;;;;4957026;28;20042;-75
2022/04/01 12:10:24;;;;;;;23.83;12.98;;;2.70;84.10;;;;;;4938032;28;20048;-75
2022/04/01 12:13:04;;;;;;;16.08;9.50;;;2.70;84.20;;;;;;4955341;28;20094;-76
2022/04/01 12:15:40;;;;;;;92.20;37.75;;;2.70;84.40;;;;;;4918609;28;20148;-75
2022/04/01 12:18:08;;;;;;;240.10;97.35;;;2.80;84.40;;;;;;4947656;28;20046;-75
2022/04/01 12:20:40;;;;;;;42.15;20.67;;;2.80;84.30;;;;;;4953835;28;20037;-77
2022/04/01 12:23:06;;;;;;;29.73;15.82;;;2.80;84.30;;;;;;4923486;28;20091;-77
2022/04/01 12:25:33;;;;;;;22.88;13.43;;;2.90;84.30;;;;;;4964670;28;20333;-75
2022/04/01 12:28:01;;;;;;;12.60;9.27;;;2.90;84.60;;;;;;4999885;28;20049;-76
2022/04/01 12:30:35;;;;;;;12.30;8.85;;;2.90;84.30;;;;;;4968990;28;20045;-75
2022/04/01 12:33:06;;;;;;;13.63;9.55;;;2.90;84.30;;;;;;4961359;28;20115;-75
2022/04/01 12:35:32;;;;;;;11.82;8.95;;;2.90;84.20;;;;;;4974570;28;20041;-76
2022/04/01 12:38:08;;;;;;;11.95;8.80;;;2.80;84.20;;;;;;4908504;28;20070;-75
2022/04/01 12:40:43;;;;;;;14.88;10.90;;;2.90;84.30;;;;;;4954254;28;20029;-76
2022/04/01 12:43:09;;;;;;;14.40;9.20;;;2.90;84.30;;;;;;4977416;28;20037;-75
2022/04/01 12:45:34;;;;;;;14.77;10.52;;;3.00;84.30;;;;;;5013460;28;20070;-75
2022/04/01 12:48:19;;;;;;;10.73;8.13;;;3.00;84.20;;;;;;4965724;28;20800;-75
2022/04/01 12:50:45;;;;;;;14.45;8.07;;;3.10;84.40;;;;;;4979095;28;20049;-75
2022/04/01 12:53:11;;;;;;;18.92;12.07;;;3.10;84.10;;;;;;4943426;28;20292;-77
2022/04/01 12:55:36;;;;;;;15.23;10.00;;;3.20;84.00;;;;;;4943068;28;20457;-76
2022/04/01 12:58:04;;;;;;;15.75;9.88;;;3.20;84.00;;;;;;4973119;28;20073;-75
2022/04/01 13:00:30;;;;;;;17.63;10.90;;;3.20;84.00;;;;;;4891882;28;20046;-76
2022/04/01 13:03:00;;;;;;;14.23;9.98;;;3.20;83.90;;;;;;4923187;28;20033;-75
2022/04/01 13:05:25;;;;;;;13.80;9.18;;;3.30;83.90;;;;;;4932640;28;20096;-77
2022/04/01 13:07:52;;;;;;;12.35;8.80;;;3.20;83.70;;;;;;4960095;28;20105;-77
2022/04/01 13:10:17;;;;;;;10.38;8.13;;;3.20;83.70;;;;;;4965799;28;20036;-75